Time;durP1;ratioP1;P1;durP2;ratioP2;P2;SDS_P1;SDS_P2;PMS_P1;PMS_P2;Temp;Humidity;BMP_temperature;BMP_pressure;BME280_temperature;BME280_humidity;BME280_pressure;Samples;Min_cycle;Max_cycle;Signal;HPM_P1;HPM_P2
2023/03/12 00:00:41;;;;;;;184.75;69.72;;;;;;;6.21;42.20;100394.72;5013789;28;20388;-78
2023/03/12 00:03:07;;;;;;;188.23;70.57;;;;;;;6.25;41.64;100420.59;5014148;28;20758;-78
2023/03/12 00:05:33;;;;;;;182.18;69.82;;;;;;;6.09;41.23;100423.06;5013108;28;20389;-78
2023/03/12 00:07:58;;;;;;;182.68;69.22;;;;;;;6.24;41.71;100410.22;5014284;28;20833;-78
2023/03/12 00:10:27;;;;;;;178.30;68.28;;;;;;;6.12;41.39;100409.59;5013760;28;20392;-78
2023/03/12 00:12:53;;;;;;;174.13;67.90;;;;;;;5.99;41.56;100417.03;5013260;28;20424;-77
2023/03/12 00:15:18;;;;;;;167.52;67.15;;;;;;;6.16;41.10;100439.91;5012272;28;20384;-77
2023/03/12 00:17:44;;;;;;;168.93;67.15;;;;;;;6.09;41.64;100434.41;5012262;28;20392;-77
2023/03/12 00:20:11;;;;;;;170.67;67.67;;;;;;;6.15;41.03;100432.16;5011866;28;20388;-77
2023/03/12 00:22:36;;;;;;;159.85;65.32;;;;;;;6.26;40.96;100424.88;5012252;28;20412;-77
2023/03/12 00:25:04;;;;;;;152.00;63.47;;;;;;;6.01;41.24;100422.97;5011781;28;20889;-77
2023/03/12 00:27:30;;;;;;;145.70;62.05;;;;;;;6.03;41.04;100431.53;5011899;28;20506;-77
2023/03/12 00:29:55;;;;;;;145.17;62.10;;;;;;;6.19;41.47;100423.81;5012180;28;20467;-78
2023/03/12 00:32:21;;;;;;;138.02;60.55;;;;;;;6.05;41.24;100433.06;5012880;28;20729;-77
2023/03/12 00:34:52;;;;;;;144.13;61.55;;;;;;;6.21;41.33;100435.03;5012303;28;20396;-78
2023/03/12 00:37:17;;;;;;;148.18;63.30;;;;;;;6.36;41.62;100424.81;5012440;28;20391;-78
2023/03/12 00:39:43;;;;;;;137.63;60.55;;;;;;;6.50;41.10;100420.84;5012825;28;20391;-77
2023/03/12 00:42:08;;;;;;;133.33;58.67;;;;;;;6.55;41.09;100413.28;5011961;28;20396;-78
2023/03/12 00:44:34;;;;;;;131.60;58.30;;;;;;;6.67;41.08;100427.06;5011802;28;20404;-78
2023/03/12 00:46:59;;;;;;;127.95;58.40;;;;;;;6.69;40.50;100422.47;5012414;28;20384;-77
2023/03/12 00:49:25;;;;;;;120.33;57.40;;;;;;;6.70;41.22;100426.78;5011568;28;20445;-78
2023/03/12 00:51:50;;;;;;;118.13;56.60;;;;;;;6.72;41.34;100429.22;5010957;28;20384;-76
2023/03/12 00:54:16;;;;;;;117.60;56.23;;;;;;;6.86;41.31;100423.44;5010963;28;20473;-78
2023/03/12 00:56:41;;;;;;;122.95;56.90;;;;;;;6.81;41.07;100431.81;5010970;28;20861;-78
2023/03/12 00:59:07;;;;;;;112.17;55.87;;;;;;;6.99;41.04;100450.22;5010511;28;20399;-77
2023/03/12 01:01:32;;;;;;;126.27;57.40;;;;;;;6.80;41.22;100442.50;5011449;28;20903;-77
2023/03/12 01:03:58;;;;;;;113.13;55.13;;;;;;;6.45;41.33;100444.16;5009628;28;20427;-77
2023/03/12 01:06:24;;;;;;;114.90;56.50;;;;;;;6.32;41.90;100445.34;5010750;28;20403;-77
2023/03/12 01:08:50;;;;;;;114.00;55.85;;;;;;;6.20;41.80;100453.59;5012536;28;20388;-77
2023/03/12 01:11:18;;;;;;;114.80;55.90;;;;;;;5.97;42.34;100453.19;5011411;28;20414;-77
2023/03/12 01:13:43;;;;;;;103.77;54.23;;;;;;;5.89;42.73;100462.59;4997906;28;20796;-77
2023/03/12 01:16:09;;;;;;;99.93;53.17;;;;;;;5.82;42.89;100464.16;5011321;28;20872;-77
2023/03/12 01:18:35;;;;;;;94.67;52.50;;;;;;;5.75;43.31;100471.78;5010710;28;20392;-76
2023/03/12 01:21:01;;;;;;;87.33;50.30;;;;;;;5.77;43.06;100487.44;5010902;28;20394;-77
2023/03/12 01:23:26;;;;;;;80.43;49.45;;;;;;;5.88;43.32;100481.16;5011410;28;20948;-77
2023/03/12 01:25:54;;;;;;;76.63;47.25;;;;;;;5.97;42.92;100496.09;5011857;28;20773;-79
2023/03/12 01:28:21;;;;;;;79.32;48.17;;;;;;;6.09;42.99;100486.22;5001010;28;20853;-78
2023/03/12 01:30:47;;;;;;;74.47;47.97;;;;;;;6.29;42.93;100498.28;5012106;28;20392;-78
2023/03/12 01:33:13;;;;;;;77.13;48.33;;;;;;;6.30;42.93;100499.09;5010961;28;20699;-78
2023/03/12 01:35:39;;;;;;;71.30;46.80;;;;;;;6.32;42.41;100499.81;5011465;28;20376;-78
2023/03/12 01:38:11;;;;;;;75.07;47.58;;;;;;;6.32;42.45;100500.63;5011134;28;20803;-78
2023/03/12 01:40:37;;;;;;;77.30;47.38;;;;;;;6.34;42.21;100507.53;5010895;28;20403;-78
2023/03/12 01:43:23;;;;;;;70.60;46.78;;;;;;;6.35;42.04;100514.47;5011194;28;20871;-79
2023/03/12 01:46:16;;;;;;;70.10;46.90;;;;;;;6.36;42.01;100516.16;5011449;28;20392;-79
2023/03/12 01:48:48;;;;;;;71.18;46.72;;;;;;;6.49;41.96;100527.13;5011301;28;20391;-78
2023/03/12 01:51:16;;;;;;;72.17;46.80;;;;;;;6.45;41.60;100531.06;5011580;28;20462;-78
2023/03/12 01:53:45;;;;;;;77.72;47.95;;;;;;;6.52;42.20;100532.13;5010601;28;20380;-78
2023/03/12 01:56:14;;;;;;;71.25;46.72;;;;;;;6.43;41.74;100533.00;5011072;28;20400;-77
2023/03/12 01:58:43;;;;;;;77.43;49.33;;;;;;;6.29;42.05;100540.41;5010742;28;20420;-77
2023/03/12 02:01:09;;;;;;;73.90;47.92;;;;;;;6.21;42.19;100537.69;5010430;28;21253;-77
2023/03/12 02:03:34;;;;;;;70.10;45.60;;;;;;;6.17;42.15;100535.47;5010508;28;20527;-77
2023/03/12 02:06:10;;;;;;;70.43;47.80;;;;;;;6.13;42.10;100541.03;5010698;28;20388;-77
2023/03/12 02:08:40;;;;;;;69.50;46.38;;;;;;;5.69;41.63;100548.63;5011325;28;20443;-77
2023/03/12 02:11:05;;;;;;;81.22;49.47;;;;;;;5.68;42.39;100531.19;5009772;28;20826;-77
2023/03/12 02:13:31;;;;;;;88.28;50.90;;;;;;;5.65;42.02;100535.91;5011385;28;20416;-77
2023/03/12 02:15:57;;;;;;;7.32;6.60;;;;;;;5.38;42.08;100541.91;4996529;28;20852;-77
2023/03/12 02:18:23;;;;;;;9.20;2.60;;;;;;;5.28;42.40;100544.56;5010759;28;20391;-77
2023/03/12 02:21:15;;;;;;;8.27;2.60;;;;;;;5.24;42.51;100543.16;5010807;28;20392;-77
2023/03/12 02:23:51;;;;;;;7.90;3.33;;;;;;;5.31;42.89;100534.59;5010686;28;20494;-77
2023/03/12 02:26:20;;;;;;;5.68;2.90;;;;;;;5.23;43.11;100533.63;5010738;28;20404;-77
2023/03/12 02:28:48;;;;;;;7.35;2.50;;;;;;;5.13;43.18;100541.50;5009866;28;20380;-77
2023/03/12 02:31:18;;;;;;;12.20;3.60;;;;;;;5.17;42.88;100538.47;5009408;28;20760;-77
2023/03/12 02:33:44;;;;;;;8.40;2.65;;;;;;;5.01;43.15;100534.75;5013738;28;20749;-78
2023/03/12 02:36:09;;;;;;;6.07;2.53;;;;;;;4.97;43.14;100553.41;5014411;28;20397;-78
2023/03/12 02:38:40;;;;;;;7.93;2.97;;;;;;;4.91;43.68;100551.31;5014121;28;20396;-78
2023/03/12 02:41:13;;;;;;;8.15;2.58;;;;;;;4.68;44.13;100557.78;5014218;28;20392;-78
2023/03/12 02:43:41;;;;;;;8.13;2.80;;;;;;;4.84;43.71;100570.38;5012169;28;20415;-78
2023/03/12 02:46:08;;;;;;;7.75;2.55;;;;;;;5.27;43.07;100584.94;5014313;28;20406;-78
2023/03/12 02:48:33;;;;;;;9.07;3.00;;;;;;;5.41;43.03;100594.22;5013957;28;20442;-77
2023/03/12 02:50:59;;;;;;;5.73;2.70;;;;;;;5.47;42.53;100593.63;5013816;28;20395;-77
2023/03/12 02:53:24;;;;;;;8.70;2.63;;;;;;;5.44;42.92;100600.03;5014041;28;20390;-77
2023/03/12 02:55:50;;;;;;;5.18;2.25;;;;;;;5.33;42.88;100590.47;5013856;28;20861;-77
2023/03/12 02:58:15;;;;;;;4.60;2.53;;;;;;;5.19;43.02;100585.63;5013317;28;20415;-77
2023/03/12 03:00:41;;;;;;;5.63;2.40;;;;;;;5.25;43.16;100582.44;5013840;28;20470;-78
2023/03/12 03:03:06;;;;;;;4.73;2.10;;;;;;;5.32;43.35;100591.44;5014529;28;20422;-79
2023/03/12 03:05:32;;;;;;;7.47;3.00;;;;;;;5.30;43.21;100596.00;5013975;28;20392;-77
2023/03/12 03:07:57;;;;;;;7.43;3.75;;;;;;;5.17;43.39;100592.84;5014310;28;20388;-78
2023/03/12 03:10:23;;;;;;;11.52;6.05;;;;;;;5.17;43.02;100593.66;5013746;28;20395;-77
2023/03/12 03:12:50;;;;;;;6.57;3.30;;;;;;;5.06;43.04;100608.72;5013219;28;20411;-77
2023/03/12 03:15:15;;;;;;;9.25;3.40;;;;;;;5.05;43.31;100607.88;5013013;28;20483;-77
2023/03/12 03:17:41;;;;;;;11.93;5.53;;;;;;;5.18;43.37;100623.38;5014155;28;20530;-77
2023/03/12 03:20:10;;;;;;;4.97;2.90;;;;;;;5.22;42.70;100629.19;5014172;28;20392;-78
2023/03/12 03:22:36;;;;;;;8.35;3.53;;;;;;;5.38;43.25;100647.06;5013242;28;20384;-78
2023/03/12 03:25:01;;;;;;;6.75;2.80;;;;;;;5.33;42.52;100645.69;5011987;28;20388;-77
2023/03/12 03:27:27;;;;;;;7.53;3.65;;;;;;;5.67;43.50;100668.06;5012487;28;20396;-77
2023/03/12 03:29:53;;;;;;;6.43;3.20;;;;;;;5.70;42.85;100662.56;5012919;28;20430;-77
2023/03/12 03:32:18;;;;;;;8.27;3.70;;;;;;;5.63;42.88;100664.91;5012467;28;20403;-77
2023/03/12 03:34:44;;;;;;;6.53;3.00;;;;;;;5.56;42.80;100661.16;5013410;28;20876;-77
2023/03/12 03:37:10;;;;;;;5.60;2.67;;;;;;;5.41;42.72;100654.66;5008950;28;20468;-77
2023/03/12 03:39:35;;;;;;;6.23;4.47;;;;;;;5.34;43.26;100660.47;5009960;28;20919;-77
2023/03/12 03:42:01;;;;;;;6.40;2.83;;;;;;;5.20;42.61;100658.22;5011863;28;20418;-77
2023/03/12 03:44:26;;;;;;;6.50;2.83;;;;;;;5.09;43.56;100658.38;5011380;28;20397;-77
2023/03/12 03:46:54;;;;;;;8.03;2.50;;;;;;;4.94;43.58;100657.91;5013205;28;20392;-77
2023/03/12 03:49:19;;;;;;;9.15;2.97;;;;;;;4.98;44.08;100648.81;5012990;28;21026;-77
2023/03/12 03:51:45;;;;;;;5.30;2.70;;;;;;;4.97;43.68;100647.97;5012564;28;20420;-77
2023/03/12 03:54:11;;;;;;;6.28;2.85;;;;;;;4.92;43.56;100650.19;5012798;28;20710;-76
2023/03/12 03:56:37;;;;;;;10.25;8.82;;;;;;;4.95;43.97;100656.94;5011523;28;20392;-76
2023/03/12 03:59:03;;;;;;;5.50;3.10;;;;;;;4.95;43.37;100668.31;5012706;28;20411;-76
2023/03/12 04:01:30;;;;;;;8.80;3.90;;;;;;;5.04;43.70;100657.94;5012373;28;20427;-76
2023/03/12 04:03:56;;;;;;;6.88;3.88;;;;;;;5.17;43.26;100675.13;5011471;28;20927;-77
2023/03/12 04:06:22;;;;;;;7.70;2.90;;;;;;;5.31;43.46;100675.69;5012726;28;20395;-77
2023/03/12 04:08:47;;;;;;;6.90;2.90;;;;;;;5.24;42.79;100683.28;5012480;28;20427;-77
2023/03/12 04:11:19;;;;;;;6.43;2.53;;;;;;;5.19;43.39;100692.56;5012223;28;20454;-77
2023/03/12 04:13:45;;;;;;;6.18;3.00;;;;;;;5.13;43.93;100699.16;5011735;28;20384;-77
2023/03/12 04:16:11;;;;;;;6.10;3.00;;;;;;;5.08;43.36;100698.75;5012455;28;20473;-77
2023/03/12 04:18:37;;;;;;;8.00;3.00;;;;;;;4.84;43.92;100692.03;5012458;28;20427;-77
2023/03/12 04:21:06;;;;;;;4.57;2.40;;;;;;;4.61;44.54;100691.41;5012814;28;20481;-74
2023/03/12 04:23:32;;;;;;;5.82;2.83;;;;;;;4.54;44.62;100691.09;5011299;28;20418;-76
2023/03/12 04:25:57;;;;;;;5.50;2.20;;;;;;;4.24;45.31;100685.84;5012353;28;20466;-77
2023/03/12 04:28:23;;;;;;;8.70;2.77;;;;;;;4.23;45.07;100687.59;5012366;28;20396;-77
2023/03/12 04:31:00;;;;;;;7.93;2.33;;;;;;;4.21;44.96;100692.16;5011879;28;20404;-77
2023/03/12 04:33:33;;;;;;;5.38;2.67;;;;;;;4.05;45.34;100689.16;5012540;28;20384;-77
2023/03/12 04:35:58;;;;;;;5.53;2.45;;;;;;;4.28;44.78;100705.59;5011948;28;20446;-77
2023/03/12 04:38:25;;;;;;;5.80;2.53;;;;;;;4.52;44.68;100710.53;5012395;28;20404;-77
2023/03/12 04:41:11;;;;;;;9.65;2.95;;;;;;;4.33;45.15;100733.09;5011953;28;20416;-76
2023/03/12 04:43:37;;;;;;;10.20;3.05;;;;;;;4.35;44.88;100733.81;5012230;28;20753;-77
2023/03/12 04:46:03;;;;;;;7.47;2.90;;;;;;;4.48;44.91;100740.66;5011609;28;20442;-77
2023/03/12 04:48:28;;;;;;;8.38;3.30;;;;;;;4.44;44.88;100737.44;5011679;28;20769;-77
2023/03/12 04:50:54;;;;;;;4.75;2.88;;;;;;;4.54;44.38;100734.91;5011847;28;20384;-77
2023/03/12 04:53:20;;;;;;;5.80;2.72;;;;;;;4.63;44.53;100739.38;5011756;28;20383;-78
2023/03/12 04:55:46;;;;;;;4.85;2.85;;;;;;;4.52;45.01;100737.66;5010590;28;20383;-77
2023/03/12 04:58:12;;;;;;;6.27;2.40;;;;;;;4.28;45.12;100735.28;5011372;28;20384;-77
2023/03/12 05:00:39;;;;;;;4.80;2.57;;;;;;;4.10;45.69;100735.03;5010952;28;20476;-77
2023/03/12 05:03:05;;;;;;;5.15;2.40;;;;;;;4.08;45.52;100736.94;5011299;28;20719;-77
2023/03/12 05:05:30;;;;;;;4.93;2.60;;;;;;;4.13;45.31;100744.44;5011116;28;20866;-77
2023/03/12 05:07:56;;;;;;;6.05;3.10;;;;;;;4.18;45.17;100750.16;5011031;28;20415;-77
2023/03/12 05:10:21;;;;;;;8.83;3.47;;;;;;;4.47;44.70;100752.94;5011302;28;20744;-77
2023/03/12 05:12:47;;;;;;;5.13;2.87;;;;;;;4.69;44.44;100761.63;5010848;28;20884;-77
2023/03/12 05:15:16;;;;;;;6.43;3.20;;;;;;;4.63;44.51;100773.50;5010690;28;20426;-77
2023/03/12 05:17:42;;;;;;;8.82;3.67;;;;;;;4.77;43.88;100786.28;5012098;28;20395;-77
2023/03/12 05:20:09;;;;;;;9.85;4.50;;;;;;;4.84;44.01;100772.63;5011837;28;20395;-77
2023/03/12 05:22:34;;;;;;;7.18;3.13;;;;;;;4.80;44.09;100782.56;5011726;28;20387;-77
2023/03/12 05:25:00;;;;;;;8.93;3.97;;;;;;;4.81;44.35;100783.38;5011685;28;20384;-78
2023/03/12 05:27:26;;;;;;;9.07;4.68;;;;;;;4.81;44.33;100780.75;5011678;28;20394;-77
2023/03/12 05:29:52;;;;;;;7.63;3.93;;;;;;;4.90;44.11;100795.75;5012082;28;20391;-78
2023/03/12 05:32:17;;;;;;;8.63;3.72;;;;;;;4.85;44.24;100788.25;5012837;28;20710;-77
2023/03/12 05:34:43;;;;;;;5.77;3.50;;;;;;;4.94;43.53;100791.88;5013619;28;20387;-77
2023/03/12 05:37:08;;;;;;;7.37;4.23;;;;;;;5.03;43.38;100792.91;5012246;28;20395;-78
2023/03/12 05:39:34;;;;;;;6.93;3.40;;;;;;;5.08;43.97;100788.09;5011715;28;20431;-78
2023/03/12 05:41:59;;;;;;;5.13;3.15;;;;;;;5.14;43.75;100793.63;5012587;28;20390;-77
2023/03/12 05:44:25;;;;;;;6.28;3.53;;;;;;;5.18;43.78;100799.44;5011374;28;20888;-78
2023/03/12 05:46:52;;;;;;;9.48;3.92;;;;;;;5.33;44.67;100797.28;5012060;28;20691;-77
2023/03/12 05:49:19;;;;;;;7.53;3.40;;;;;;;5.40;43.76;100790.50;5011575;28;20384;-77
2023/03/12 05:51:49;;;;;;;10.02;3.88;;;;;;;5.39;43.71;100809.06;5011467;28;20384;-77
2023/03/12 05:54:15;;;;;;;6.40;3.42;;;;;;;5.31;43.24;100804.47;5011080;28;20396;-77
2023/03/12 05:56:41;;;;;;;7.22;3.20;;;;;;;5.39;43.74;100809.06;5011337;28;20388;-77
2023/03/12 05:59:09;;;;;;;6.57;3.17;;;;;;;5.45;43.47;100816.41;5011303;28;20725;-77
2023/03/12 06:01:35;;;;;;;9.88;3.88;;;;;;;5.33;43.34;100806.00;5011322;28;20391;-77
2023/03/12 06:04:00;;;;;;;5.97;3.00;;;;;;;5.19;43.51;100818.69;5011435;28;20408;-77
2023/03/12 06:06:28;;;;;;;8.10;3.40;;;;;;;5.10;43.48;100815.88;5012760;28;20384;-78
2023/03/12 06:08:54;;;;;;;5.93;3.72;;;;;;;5.10;43.83;100830.81;5015557;28;20391;-78
2023/03/12 06:11:19;;;;;;;6.87;3.20;;;;;;;5.07;44.09;100841.59;5016053;28;20477;-77
2023/03/12 06:13:44;;;;;;;5.18;3.47;;;;;;;5.18;43.74;100852.00;5015646;28;20741;-77
2023/03/12 06:16:17;;;;;;;8.70;3.93;;;;;;;5.15;44.16;100861.00;5015315;28;20435;-77
2023/03/12 06:18:42;;;;;;;6.38;3.60;;;;;;;5.30;43.96;100855.38;5015214;28;20852;-79
2023/03/12 06:21:14;;;;;;;12.00;4.15;;;;;;;5.43;43.57;100855.97;5015564;28;20368;-78
2023/03/12 06:23:40;;;;;;;10.23;3.22;;;;;;;5.37;43.58;100877.56;5014869;28;20876;-78
2023/03/12 06:26:07;;;;;;;7.63;3.40;;;;;;;5.33;43.16;100863.00;5014418;28;20403;-78
2023/03/12 06:28:33;;;;;;;7.47;3.80;;;;;;;5.26;43.93;100856.63;5015570;28;20394;-78
2023/03/12 06:30:58;;;;;;;7.87;4.23;;;;;;;5.29;44.46;100862.41;5015362;28;20703;-76
2023/03/12 06:33:24;;;;;;;8.47;3.17;;;;;;;5.07;44.23;100857.34;5015193;28;20859;-77
2023/03/12 06:35:53;;;;;;;14.17;5.73;;;;;;;5.16;44.06;100857.38;5014150;28;20388;-78
2023/03/12 06:38:19;;;;;;;10.40;4.07;;;;;;;5.12;44.34;100866.50;5014564;28;20383;-77
2023/03/12 06:40:56;;;;;;;9.32;4.40;;;;;;;5.13;43.70;100868.19;5014365;28;20384;-77
2023/03/12 06:43:22;;;;;;;10.10;4.03;;;;;;;5.19;43.89;100866.81;5014773;28;20443;-77
2023/03/12 06:45:48;;;;;;;13.20;5.53;;;;;;;5.42;42.90;100871.88;5014010;28;20879;-76
2023/03/12 06:48:13;;;;;;;5.70;3.27;;;;;;;5.40;43.03;100863.31;5014808;28;20467;-77
2023/03/12 06:50:39;;;;;;;10.10;4.20;;;;;;;5.40;43.19;100866.75;5014689;28;20850;-77
2023/03/12 06:53:04;;;;;;;7.20;3.33;;;;;;;5.48;42.74;100887.16;5015001;28;20376;-77
2023/03/12 06:55:30;;;;;;;9.32;3.85;;;;;;;5.81;42.31;100887.78;5014372;28;20865;-77
2023/03/12 06:57:55;;;;;;;6.60;3.03;;;;;;;5.63;42.09;100898.94;5013326;28;20475;-77
2023/03/12 07:00:21;;;;;;;9.20;3.20;;;;;;;5.58;41.30;100909.03;5014225;28;20376;-78
2023/03/12 07:02:46;;;;;;;5.35;3.25;;;;;;;5.31;41.85;100885.94;5014352;28;20446;-77
2023/03/12 07:05:12;;;;;;;5.93;3.67;;;;;;;5.60;41.59;100903.63;5013619;28;20954;-77
2023/03/12 07:07:37;;;;;;;5.20;3.00;;;;;;;5.85;40.32;100899.72;5014621;28;20446;-77
2023/03/12 07:10:05;;;;;;;5.33;2.37;;;;;;;5.82;40.83;100902.63;5014436;28;20941;-78
2023/03/12 07:12:31;;;;;;;3.10;2.40;;;;;;;5.75;39.96;100903.16;5014465;28;20503;-77
2023/03/12 07:14:57;;;;;;;8.45;3.42;;;;;;;5.71;40.97;100907.03;5014536;28;20493;-77
2023/03/12 07:17:24;;;;;;;5.47;2.87;;;;;;;5.86;40.03;100922.44;5015412;28;20841;-78
2023/03/12 07:19:50;;;;;;;5.70;2.97;;;;;;;5.76;39.82;100919.75;5013449;28;20403;-78
2023/03/12 07:22:15;;;;;;;5.38;2.53;;;;;;;5.95;39.22;100919.00;5014983;28;20840;-78
2023/03/12 07:24:41;;;;;;;5.28;2.70;;;;;;;5.94;39.06;100919.94;5014352;28;20436;-77
2023/03/12 07:27:07;;;;;;;6.45;2.38;;;;;;;5.75;39.93;100923.38;5012956;28;20721;-77
2023/03/12 07:29:32;;;;;;;4.15;2.90;;;;;;;6.03;39.11;100927.09;5014893;28;20493;-79
2023/03/12 07:31:58;;;;;;;5.57;2.67;;;;;;;6.21;39.13;100918.50;5014721;28;20453;-78
2023/03/12 07:34:23;;;;;;;5.20;3.00;;;;;;;6.53;39.04;100922.69;5026704;28;20384;-78
2023/03/12 07:36:49;;;;;;;5.15;2.65;;;;;;;6.77;39.11;100928.38;5014344;28;20388;-77
2023/03/12 07:39:14;;;;;;;4.67;2.20;;;;;;;6.73;38.21;100934.88;5014017;28;20403;-77
2023/03/12 07:41:40;;;;;;;6.73;2.97;;;;;;;6.39;39.13;100923.94;5012770;28;20388;-77
2023/03/12 07:44:05;;;;;;;6.93;3.00;;;;;;;6.57;38.97;100930.19;5013773;28;20410;-78
2023/03/12 07:46:31;;;;;;;4.15;2.30;;;;;;;6.43;38.20;100926.16;5013317;28;20931;-77
2023/03/12 07:48:56;;;;;;;3.33;1.90;;;;;;;6.41;38.78;100936.00;5013092;28;20388;-77
2023/03/12 07:51:22;;;;;;;4.40;2.37;;;;;;;6.40;39.00;100936.16;5012501;28;20392;-77
2023/03/12 07:53:47;;;;;;;8.88;2.72;;;;;;;6.61;38.86;100936.00;5013689;28;20403;-77
2023/03/12 07:56:13;;;;;;;4.80;3.10;;;;;;;6.94;38.85;100920.75;5013632;28;20380;-78
2023/03/12 07:58:38;;;;;;;5.90;2.80;;;;;;;7.07;38.04;100929.16;5012162;28;20384;-77
2023/03/12 08:01:05;;;;;;;7.40;2.97;;;;;;;7.00;38.75;100933.34;5013260;28;20467;-77
2023/03/12 08:03:31;;;;;;;6.40;2.83;;;;;;;7.03;37.72;100954.97;5012238;28;20404;-76
2023/03/12 08:06:02;;;;;;;4.82;2.50;;;;;;;7.07;37.93;100937.06;5012515;28;20470;-76
2023/03/12 08:08:28;;;;;;;5.85;2.47;;;;;;;7.22;37.98;100934.81;5010557;28;20833;-77
2023/03/12 08:10:54;;;;;;;10.82;5.60;;;;;;;6.98;38.23;100936.13;5011721;28;20388;-77
2023/03/12 08:13:21;;;;;;;8.05;2.88;;;;;;;7.43;37.87;100938.09;5011903;28;20380;-76
2023/03/12 08:15:49;;;;;;;8.07;2.70;;;;;;;7.26;37.39;100950.22;4994577;28;20384;-77
2023/03/12 08:18:15;;;;;;;3.08;2.08;;;;;;;7.24;37.34;100967.16;5014246;28;20395;-78
2023/03/12 08:20:40;;;;;;;4.40;2.17;;;;;;;7.38;36.39;100969.34;5014534;28;20376;-79
2023/03/12 08:23:05;;;;;;;6.30;2.10;;;;;;;7.38;36.47;100960.59;5012819;28;20491;-77
2023/03/12 08:25:31;;;;;;;9.20;2.50;;;;;;;7.39;36.40;100957.81;5011197;28;20728;-78
2023/03/12 08:27:56;;;;;;;6.37;2.73;;;;;;;7.37;36.39;100969.50;5011103;28;20386;-76
2023/03/12 08:30:22;;;;;;;4.47;1.90;;;;;;;7.36;36.03;100983.66;5009369;28;20884;-77
2023/03/12 08:32:47;;;;;;;6.53;2.03;;;;;;;7.15;36.03;100979.41;5011276;28;20380;-77
2023/03/12 08:35:13;;;;;;;12.80;2.60;;;;;;;7.15;35.48;100983.81;5010125;28;20372;-77
2023/03/12 08:37:40;;;;;;;12.10;2.78;;;;;;;7.58;35.72;100991.25;5013515;28;20390;-77
2023/03/12 08:40:12;;;;;;;6.85;2.40;;;;;;;7.48;35.37;100979.88;5019676;28;20379;-78
2023/03/12 08:42:43;;;;;;;5.53;1.95;;;;;;;7.20;36.12;100986.84;5032308;28;20390;-78
2023/03/12 08:45:10;;;;;;;3.30;1.63;;;;;;;7.30;35.31;100990.31;5032020;28;20386;-77
2023/03/12 08:47:38;;;;;;;4.90;2.10;;;;;;;7.52;35.13;100993.59;5031705;28;20375;-77
2023/03/12 08:50:04;;;;;;;5.18;2.30;;;;;;;7.42;35.54;100999.75;5030953;28;20456;-77
2023/03/12 08:52:30;;;;;;;5.85;1.70;;;;;;;7.27;35.40;101004.63;5031654;28;20374;-77
2023/03/12 08:54:55;;;;;;;5.18;1.80;;;;;;;7.33;35.62;101011.16;5020315;28;20387;-76
2023/03/12 08:57:21;;;;;;;4.17;1.50;;;;;;;7.42;35.22;100991.00;5030002;28;20664;-76
2023/03/12 08:59:46;;;;;;;5.30;1.70;;;;;;;7.67;34.29;100997.47;5031270;28;20386;-77
2023/03/12 09:02:12;;;;;;;4.38;1.63;;;;;;;7.66;34.31;101012.44;5030440;28;20386;-77
2023/03/12 09:04:38;;;;;;;5.57;2.15;;;;;;;7.71;34.66;101016.47;5031218;28;20409;-77
2023/03/12 09:07:04;;;;;;;5.88;1.77;;;;;;;7.92;33.83;101027.63;5030837;28;20396;-77
2023/03/12 09:09:29;;;;;;;5.53;1.80;;;;;;;7.43;34.37;101021.66;5031245;28;20382;-77
2023/03/12 09:11:55;;;;;;;6.60;2.15;;;;;;;7.56;35.21;101029.28;5029850;28;20418;-78
2023/03/12 09:14:20;;;;;;;6.18;2.17;;;;;;;7.90;33.97;101023.47;5030979;28;20378;-77
2023/03/12 09:16:46;;;;;;;6.67;2.37;;;;;;;8.01;33.96;101013.59;5017468;28;20382;-78
2023/03/12 09:19:12;;;;;;;6.67;2.40;;;;;;;8.38;34.01;101035.63;5030747;28;20835;-78
2023/03/12 09:21:38;;;;;;;4.65;1.98;;;;;;;8.10;32.75;101043.53;5047065;28;20462;-77
2023/03/12 09:24:05;;;;;;;3.72;1.98;;;;;;;8.23;33.03;101033.47;5031759;28;20471;-77
2023/03/12 09:26:30;;;;;;;5.68;2.70;;;;;;;8.29;33.62;101039.97;5031197;28;20386;-77
2023/03/12 09:28:57;;;;;;;5.53;2.47;;;;;;;8.44;33.71;101048.25;5025480;28;20426;-78
2023/03/12 09:31:23;;;;;;;4.95;1.65;;;;;;;8.07;32.64;101037.72;5021930;28;20386;-78
2023/03/12 09:33:48;;;;;;;4.20;1.73;;;;;;;7.88;33.34;101052.66;5025357;28;20725;-77
2023/03/12 09:36:14;;;;;;;5.27;1.73;;;;;;;8.24;33.25;101047.50;5038150;28;20874;-77
2023/03/12 09:38:39;;;;;;;6.57;1.90;;;;;;;8.24;32.94;101050.16;5030288;28;20718;-77
2023/03/12 09:41:05;;;;;;;5.45;2.00;;;;;;;8.33;32.88;101038.69;5030276;28;20389;-77
2023/03/12 09:43:37;;;;;;;4.97;1.70;;;;;;;8.61;32.33;101054.59;5032633;28;20401;-77
2023/03/12 09:46:11;;;;;;;6.97;2.72;;;;;;;8.53;33.30;101059.75;5033976;28;20452;-77
2023/03/12 09:48:37;;;;;;;4.60;1.60;;;;;;;8.48;32.57;101047.00;5034640;28;20416;-77
2023/03/12 09:51:15;;;;;;;5.37;1.80;;;;;;;8.41;32.68;101061.75;5034225;28;20451;-77
2023/03/12 09:53:50;;;;;;;7.45;2.20;;;;;;;8.42;32.41;101058.16;5034413;28;20389;-77
2023/03/12 09:56:18;;;;;;;6.10;1.83;;;;;;;8.30;32.15;101069.84;5034732;28;20378;-77
2023/03/12 09:58:50;;;;;;;5.30;1.97;;;;;;;8.00;32.67;101061.25;5033871;28;20493;-77
2023/03/12 10:01:27;;;;;;;5.72;1.80;;;;;;;8.08;32.39;101065.78;5034172;28;20381;-77
2023/03/12 10:03:52;;;;;;;5.90;2.40;;;;;;;8.30;33.14;101059.28;5033699;28;20397;-77
2023/03/12 10:06:26;;;;;;;4.30;2.03;;;;;;;8.46;32.55;101071.91;5033558;28;20393;-77
2023/03/12 10:09:15;;;;;;;4.68;1.65;;;;;;;8.19;32.82;101074.38;5033445;28;20775;-78
2023/03/12 10:12:11;;;;;;;6.35;2.15;;;;;;;8.30;32.96;101069.84;5020582;28;20414;-77
2023/03/12 10:14:42;;;;;;;8.23;2.65;;;;;;;8.21;33.58;101080.34;5032702;28;20521;-77
2023/03/12 10:17:35;;;;;;;8.13;2.33;;;;;;;8.41;31.91;101074.97;5033163;28;20382;-77
2023/03/12 10:20:19;;;;;;;5.82;2.20;;;;;;;8.46;32.80;101074.53;4990125;28;20888;-77
2023/03/12 10:23:12;;;;;;;6.95;1.90;;;;;;;8.12;32.67;101073.28;5010434;28;20721;-77
2023/03/12 10:25:57;;;;;;;6.63;2.23;;;;;;;8.48;32.46;101080.50;5001307;28;20987;-77
2023/03/12 10:28:31;;;;;;;7.57;2.35;;;;;;;8.59;33.02;101075.88;5013935;28;20378;-77
2023/03/12 10:31:04;;;;;;;6.50;2.13;;;;;;;8.90;31.93;101072.88;5025426;28;20859;-77
2023/03/12 10:33:57;;;;;;;4.85;2.15;;;;;;;8.95;32.30;101080.38;5031334;28;20378;-77
2023/03/12 10:36:28;;;;;;;7.18;3.28;;;;;;;8.75;32.59;101069.94;5031676;28;20426;-77
2023/03/12 10:38:54;;;;;;;4.05;1.88;;;;;;;8.80;32.00;101078.25;5033000;28;20378;-77
2023/03/12 10:41:22;;;;;;;5.40;2.30;;;;;;;8.83;32.31;101063.88;5033048;28;20452;-77
2023/03/12 10:43:48;;;;;;;8.32;2.00;;;;;;;8.39;32.99;101074.25;5033274;28;20397;-77
2023/03/12 10:46:14;;;;;;;7.40;2.20;;;;;;;8.61;33.12;101081.81;5033756;28;20412;-77
2023/03/12 10:48:39;;;;;;;6.83;3.07;;;;;;;8.72;32.61;101069.41;5033065;28;20375;-77
2023/03/12 10:51:11;;;;;;;7.57;2.55;;;;;;;9.15;32.83;101067.84;5026427;28;20395;-77
2023/03/12 10:53:43;;;;;;;6.97;2.47;;;;;;;8.89;31.68;101086.25;5024593;28;20378;-77
2023/03/12 10:56:19;;;;;;;5.20;1.85;;;;;;;9.00;32.49;101059.56;5031042;28;20389;-77
2023/03/12 10:58:47;;;;;;;6.05;2.22;;;;;;;9.03;32.28;101067.22;5019538;28;20383;-78
2023/03/12 11:01:18;;;;;;;5.55;1.95;;;;;;;8.93;32.29;101064.66;5032177;28;20473;-77
2023/03/12 11:03:44;;;;;;;3.45;1.40;;;;;;;8.77;31.81;101064.50;5033065;28;20886;-78
2023/03/12 11:06:29;;;;;;;4.28;1.65;;;;;;;8.53;32.62;101057.94;5033273;28;20398;-77
2023/03/12 11:09:06;;;;;;;5.38;2.05;;;;;;;8.92;32.37;101065.63;5033234;28;20448;-78
2023/03/12 11:11:33;;;;;;;5.80;2.03;;;;;;;8.53;32.35;101059.75;5032700;28;20754;-77
2023/03/12 11:14:23;;;;;;;5.13;2.27;;;;;;;8.46;32.18;101072.72;5032689;28;20851;-78
2023/03/12 11:16:50;;;;;;;4.75;1.85;;;;;;;8.77;32.44;101048.63;5012128;28;20379;-78
2023/03/12 11:19:34;;;;;;;5.13;1.77;;;;;;;8.89;32.49;101046.59;5032972;28;20471;-77
2023/03/12 11:22:14;;;;;;;4.82;1.92;;;;;;;9.02;32.46;101062.06;5006516;28;20697;-77
2023/03/12 11:24:58;;;;;;;7.20;2.00;;;;;;;9.11;32.23;101040.00;5048487;28;20402;-77
2023/03/12 11:27:35;;;;;;;5.40;1.77;;;;;;;9.42;32.14;101034.28;5032480;28;20863;-77
2023/03/12 11:30:04;;;;;;;10.13;3.03;;;;;;;9.72;32.25;101035.66;5047551;28;20422;-77
2023/03/12 11:32:32;;;;;;;7.43;3.00;;;;;;;9.68;31.83;101032.50;5021810;28;20448;-78